createdAt,value
2023-02-05T00:02:18.583Z,0.50
2023-02-05T00:04:48.120Z,0.50
2023-02-05T00:07:17.679Z,0.40
2023-02-05T00:09:47.165Z,0.40
2023-02-05T00:12:16.690Z,0.50
2023-02-05T00:14:46.240Z,0.40
2023-02-05T00:17:17.115Z,0.50
2023-02-05T00:19:46.941Z,0.40
2023-02-05T00:22:16.550Z,0.40
2023-02-05T00:24:46.138Z,0.40
2023-02-05T00:27:15.653Z,0.40
2023-02-05T00:29:45.237Z,0.50
2023-02-05T00:32:14.745Z,0.40
2023-02-05T00:34:45.604Z,0.50
2023-02-05T00:37:15.109Z,0.50
2023-02-05T00:39:45.479Z,0.40
2023-02-05T00:42:15.239Z,0.40
2023-02-05T00:44:44.785Z,0.40
2023-02-05T00:47:14.381Z,0.40
2023-02-05T00:49:45.378Z,0.40
2023-02-05T00:52:15.416Z,0.40
2023-02-05T00:54:45.024Z,0.40
2023-02-05T00:57:15.731Z,0.40
2023-02-05T00:59:45.259Z,0.40
2023-02-05T01:02:14.917Z,0.40
2023-02-05T01:04:46.836Z,0.40
2023-02-05T01:07:16.371Z,0.40
2023-02-05T01:09:45.985Z,0.40
2023-02-05T01:12:15.676Z,0.50
2023-02-05T01:14:45.484Z,0.43
2023-02-05T01:17:15.046Z,0.40
2023-02-05T01:19:44.623Z,0.50
2023-02-05T01:22:16.020Z,0.40
2023-02-05T01:24:45.579Z,0.40
2023-02-05T01:27:15.367Z,0.40
2023-02-05T01:29:45.005Z,0.40
2023-02-05T01:32:14.557Z,0.40
2023-02-05T01:34:44.081Z,0.40
2023-02-05T01:37:15.054Z,0.40
2023-02-05T01:39:44.768Z,0.43
2023-02-05T01:42:17.933Z,0.40
2023-02-05T01:45:07.486Z,0.40
2023-02-05T01:47:37.047Z,0.40
2023-02-05T01:50:06.756Z,0.40
2023-02-05T01:52:38.056Z,0.40
2023-02-05T01:55:09.102Z,0.40
2023-02-05T01:57:38.848Z,0.30
2023-02-05T02:00:09.303Z,0.40
2023-02-05T02:02:44.559Z,0.40
2023-02-05T02:05:15.022Z,0.40
2023-02-05T02:07:46.368Z,0.40
2023-02-05T02:10:18.874Z,0.40
2023-02-05T02:12:49.912Z,0.40
2023-02-05T02:15:21.201Z,0.40
2023-02-05T02:17:52.753Z,0.33
2023-02-05T02:20:25.752Z,0.40
2023-02-05T02:23:08.203Z,0.40
2023-02-05T02:25:50.645Z,0.30
2023-02-05T02:28:26.001Z,0.50
2023-02-05T02:31:00.564Z,0.40
2023-02-05T02:33:34.933Z,0.40
2023-02-05T02:36:08.631Z,0.40
2023-02-05T02:38:41.659Z,0.40
2023-02-05T02:41:15.105Z,0.40
2023-02-05T02:43:48.360Z,0.40
2023-02-05T02:46:20.947Z,0.40
2023-02-05T02:48:52.096Z,0.40
2023-02-05T02:51:22.691Z,0.40
2023-02-05T02:53:54.180Z,0.40
2023-02-05T02:56:25.873Z,0.40
2023-02-05T02:58:58.696Z,0.40
2023-02-05T03:01:31.917Z,0.40
2023-02-05T03:04:03.956Z,0.40
2023-02-05T03:06:33.962Z,0.40
2023-02-05T03:09:08.339Z,0.40
2023-02-05T03:11:37.865Z,0.47
2023-02-05T03:14:08.960Z,0.40
2023-02-05T03:16:40.772Z,0.50
2023-02-05T03:19:10.637Z,0.40
2023-02-05T03:21:43.187Z,0.40
2023-02-05T03:24:13.113Z,0.40
2023-02-05T03:26:43.179Z,0.40
2023-02-05T03:29:26.494Z,0.40
2023-02-05T03:32:01.114Z,0.40
2023-02-05T03:34:39.328Z,0.40
2023-02-05T03:37:13.979Z,0.40
2023-02-05T03:39:50.657Z,0.40
2023-02-05T03:42:28.782Z,0.40
2023-02-05T03:45:07.277Z,0.40
2023-02-05T03:47:46.035Z,0.50
2023-02-05T03:50:19.451Z,0.40
2023-02-05T03:52:52.096Z,0.40
2023-02-05T03:55:24.824Z,0.40
2023-02-05T03:57:58.749Z,0.40
2023-02-05T04:00:30.308Z,0.40
2023-02-05T04:02:59.934Z,0.43
2023-02-05T04:05:33.690Z,0.40
2023-02-05T04:08:05.551Z,0.40
2023-02-05T04:10:41.534Z,0.40
2023-02-05T04:13:13.644Z,0.40
2023-02-05T04:15:45.374Z,0.40
2023-02-05T04:18:17.352Z,0.40
2023-02-05T04:20:48.181Z,0.40
2023-02-05T04:23:21.191Z,0.40
2023-02-05T04:25:54.339Z,0.40
2023-02-05T04:28:27.956Z,0.40
2023-02-05T04:30:59.464Z,0.47
2023-02-05T04:33:29.171Z,0.40
2023-02-05T04:36:00.479Z,0.30
2023-02-05T04:38:30.330Z,0.40
2023-02-05T04:40:59.817Z,0.50
2023-02-05T04:43:29.493Z,0.40
2023-02-05T04:46:00.368Z,0.30
2023-02-05T04:48:29.869Z,0.40
2023-02-05T04:50:59.359Z,0.40
2023-02-05T04:53:28.841Z,0.40
2023-02-05T04:56:05.783Z,0.40
2023-02-05T04:58:35.293Z,0.40
2023-02-05T05:01:06.495Z,0.40
2023-02-05T05:03:36.000Z,0.30
2023-02-05T05:06:05.812Z,0.40
2023-02-05T05:08:35.317Z,0.40
2023-02-05T05:11:07.581Z,0.40
2023-02-05T05:13:37.237Z,0.40
2023-02-05T05:16:09.052Z,0.40
2023-02-05T05:18:39.093Z,0.40
2023-02-05T05:21:08.922Z,0.40
2023-02-05T05:23:38.885Z,0.40
2023-02-05T05:26:09.351Z,0.40
2023-02-05T05:28:39.205Z,0.40
2023-02-05T05:31:11.095Z,0.40
2023-02-05T05:33:40.696Z,0.50
2023-02-05T05:36:10.909Z,0.40
2023-02-05T05:38:40.428Z,0.50
2023-02-05T05:41:27.888Z,0.50
2023-02-05T05:43:57.412Z,0.43
2023-02-05T05:46:28.734Z,0.40
2023-02-05T05:48:59.421Z,0.40
2023-02-05T05:51:29.571Z,0.40
2023-02-05T05:53:59.046Z,0.40
2023-02-05T05:56:28.581Z,0.40
2023-02-05T05:58:58.081Z,0.40
2023-02-05T06:01:29.376Z,0.40
2023-02-05T06:03:58.859Z,0.40
2023-02-05T06:06:28.371Z,0.40
2023-02-05T06:08:57.875Z,0.50
2023-02-05T06:11:27.372Z,0.50
2023-02-05T06:13:56.857Z,0.40
2023-02-05T06:16:26.362Z,0.50
2023-02-05T06:18:58.032Z,0.40
2023-02-05T06:21:27.572Z,0.50
2023-02-05T06:23:57.074Z,0.50
2023-02-05T06:26:26.563Z,0.50
2023-02-05T06:28:57.199Z,0.40
2023-02-05T06:31:26.797Z,0.40
2023-02-05T06:33:57.792Z,0.40
2023-02-05T06:36:27.274Z,0.50
2023-02-05T06:38:56.772Z,0.50
2023-02-05T06:41:26.366Z,0.40
2023-02-05T06:43:55.877Z,0.40
2023-02-05T06:46:25.367Z,0.40
2023-02-05T06:48:54.957Z,0.40
2023-02-05T06:51:25.838Z,0.40
2023-02-05T06:53:57.310Z,0.50
2023-02-05T06:56:26.816Z,0.40
2023-02-05T06:58:56.320Z,0.47
2023-02-05T07:01:25.881Z,0.40
2023-02-05T07:03:56.283Z,0.40
2023-02-05T07:06:29.021Z,0.40
2023-02-05T07:08:59.443Z,0.40
2023-02-05T07:11:28.988Z,0.40
2023-02-05T07:13:58.473Z,0.50
2023-02-05T07:16:28.210Z,0.40
2023-02-05T07:18:57.761Z,0.40
2023-02-05T07:21:28.660Z,0.40
2023-02-05T07:23:58.135Z,0.30
2023-02-05T07:26:27.644Z,0.40
2023-02-05T07:28:57.180Z,0.40
2023-02-05T07:31:26.807Z,0.40
2023-02-05T07:33:56.483Z,0.40
2023-02-05T07:36:25.973Z,0.37
2023-02-05T07:38:56.840Z,0.40
2023-02-05T07:41:26.809Z,0.40
2023-02-05T07:43:56.411Z,0.40
2023-02-05T07:46:25.967Z,0.40
2023-02-05T07:48:56.187Z,0.40
2023-02-05T07:51:26.891Z,0.40
2023-02-05T07:53:57.836Z,0.40
2023-02-05T07:56:27.380Z,0.40
2023-02-05T07:58:57.024Z,0.40
2023-02-05T08:01:26.731Z,0.40
2023-02-05T08:03:56.287Z,0.40
2023-02-05T08:06:26.067Z,0.40
2023-02-05T08:08:56.233Z,0.40
2023-02-05T08:11:27.094Z,0.40
2023-02-05T08:13:56.984Z,0.40
2023-02-05T08:16:26.660Z,0.40
2023-02-05T08:18:56.204Z,0.33
2023-02-05T08:21:25.765Z,0.43
2023-02-05T08:23:57.326Z,0.40
2023-02-05T08:26:28.270Z,0.30
2023-02-05T08:28:58.365Z,0.40
2023-02-05T08:31:27.960Z,0.40
2023-02-05T08:34:00.034Z,0.40
2023-02-05T08:36:29.690Z,0.40
2023-02-05T08:38:59.210Z,0.40
2023-02-05T08:41:30.112Z,0.40
2023-02-05T08:43:59.618Z,0.50
2023-02-05T08:46:37.432Z,0.37
2023-02-05T08:49:13.379Z,0.40
2023-02-05T08:51:43.354Z,0.40
2023-02-05T08:54:13.551Z,0.30
2023-02-05T08:56:45.134Z,0.40
2023-02-05T08:59:14.724Z,0.40
2023-02-05T09:01:45.024Z,0.40
2023-02-05T09:04:15.450Z,0.40
2023-02-05T09:06:45.329Z,0.40
2023-02-05T09:09:14.919Z,0.40
2023-02-05T09:11:47.003Z,0.40
2023-02-05T09:14:17.096Z,0.40
2023-02-05T09:16:46.666Z,0.40
2023-02-05T09:19:16.341Z,0.40
2023-02-05T09:21:46.060Z,0.30
2023-02-05T09:24:15.540Z,0.40
2023-02-05T09:26:46.426Z,0.40
2023-02-05T09:29:15.959Z,0.30
2023-02-05T09:31:45.634Z,0.40
2023-02-05T09:34:15.672Z,0.30
2023-02-05T09:36:45.147Z,0.30
2023-02-05T09:39:34.551Z,0.40
2023-02-05T09:42:10.285Z,0.40
2023-02-05T09:44:44.881Z,0.30
2023-02-05T09:47:17.997Z,0.40
2023-02-05T09:49:52.206Z,0.40
2023-02-05T09:52:22.575Z,0.40
2023-02-05T09:54:54.628Z,0.40
2023-02-05T09:57:31.776Z,0.40
2023-02-05T10:00:01.517Z,0.40
2023-02-05T10:02:37.253Z,0.30
2023-02-05T10:05:14.323Z,0.30
2023-02-05T10:07:47.660Z,0.40
2023-02-05T10:10:27.384Z,0.30
2023-02-05T10:13:17.916Z,0.40
2023-02-05T10:15:59.023Z,0.40
2023-02-05T10:18:31.602Z,0.40
2023-02-05T10:21:06.010Z,0.30
2023-02-05T10:23:55.172Z,0.33
2023-02-05T10:26:25.745Z,0.30
2023-02-05T10:29:06.978Z,0.37
2023-02-05T10:31:41.961Z,0.40
2023-02-05T10:34:21.940Z,0.40
2023-02-05T10:36:52.788Z,0.40
2023-02-05T10:39:23.147Z,0.40
2023-02-05T10:41:55.372Z,0.40
2023-02-05T10:44:28.046Z,0.30
2023-02-05T10:46:59.157Z,0.40
2023-02-05T10:49:31.403Z,0.40
2023-02-05T10:52:00.863Z,0.40
2023-02-05T10:54:31.061Z,0.40
2023-02-05T10:57:00.575Z,0.30
2023-02-05T10:59:32.336Z,0.40
2023-02-05T11:02:04.109Z,0.30
2023-02-05T11:04:36.263Z,0.40
2023-02-05T11:07:10.117Z,0.30
2023-02-05T11:09:40.093Z,0.40
2023-02-05T11:12:19.654Z,0.40
2023-02-05T11:14:57.327Z,0.40
2023-02-05T11:17:28.769Z,0.40
2023-02-05T11:19:59.197Z,0.30
2023-02-05T11:22:29.647Z,0.30
2023-02-05T11:25:09.489Z,0.30
2023-02-05T11:27:39.580Z,0.30
2023-02-05T11:30:47.575Z,0.40
2023-02-05T11:33:25.483Z,0.30
2023-02-05T11:35:56.470Z,0.30
2023-02-05T11:38:31.179Z,0.40
2023-02-05T11:41:02.273Z,0.30
2023-02-05T11:43:33.158Z,0.30
2023-02-05T11:46:05.585Z,0.40
2023-02-05T11:48:38.879Z,0.40
2023-02-05T11:51:09.827Z,0.30
2023-02-05T11:53:40.339Z,0.40
2023-02-05T11:56:11.780Z,0.37
2023-02-05T11:58:41.304Z,0.30
2023-02-05T12:01:25.218Z,0.30
2023-02-05T12:03:59.743Z,0.37
2023-02-05T12:06:32.652Z,0.37
2023-02-05T12:09:02.224Z,0.30
2023-02-05T12:11:53.822Z,0.30
2023-02-05T12:14:32.569Z,0.40
2023-02-05T12:17:09.633Z,0.40
2023-02-05T12:19:43.504Z,0.30
2023-02-05T12:22:16.047Z,0.30
2023-02-05T12:24:52.549Z,0.30
2023-02-05T12:27:28.304Z,0.40
2023-02-05T12:30:04.640Z,0.30
2023-02-05T12:32:43.407Z,0.30
2023-02-05T12:35:18.748Z,0.30
2023-02-05T12:37:51.444Z,0.30
2023-02-05T12:40:30.312Z,0.30
2023-02-05T12:43:04.862Z,0.30
2023-02-05T12:45:42.174Z,0.30
2023-02-05T12:48:19.900Z,0.40
2023-02-05T12:51:01.775Z,0.30
2023-02-05T12:53:55.722Z,0.30
2023-02-05T12:56:31.592Z,0.30
2023-02-05T12:59:02.923Z,0.30
2023-02-05T13:01:37.614Z,0.40
2023-02-05T13:04:09.135Z,0.40
2023-02-05T13:06:39.510Z,0.30
2023-02-05T13:09:14.797Z,0.30
2023-02-05T13:11:46.456Z,0.30
2023-02-05T13:14:19.625Z,0.30
2023-02-05T13:16:50.552Z,0.40
2023-02-05T13:19:26.033Z,0.30
2023-02-05T13:22:15.375Z,0.30
2023-02-05T13:25:05.422Z,0.30
2023-02-05T13:27:54.081Z,0.30
2023-02-05T13:30:26.487Z,0.30
2023-02-05T13:32:58.229Z,0.30
2023-02-05T13:35:33.571Z,0.30
2023-02-05T13:38:12.076Z,0.30
2023-02-05T13:40:47.219Z,0.30
2023-02-05T13:43:43.586Z,0.30
2023-02-05T13:46:34.078Z,0.20
2023-02-05T13:49:36.834Z,0.30
2023-02-05T13:52:14.162Z,0.30
2023-02-05T13:54:58.548Z,0.30
2023-02-05T13:57:40.419Z,0.30
2023-02-05T14:00:12.791Z,0.27
2023-02-05T14:02:46.187Z,0.30
2023-02-05T14:05:15.966Z,0.23
2023-02-05T14:07:49.118Z,0.30
2023-02-05T14:10:28.864Z,0.30
2023-02-05T14:13:11.313Z,0.33
2023-02-05T14:15:42.127Z,0.30
2023-02-05T14:18:13.005Z,0.30
2023-02-05T14:20:45.529Z,0.30
2023-02-05T14:23:39.810Z,0.30
2023-02-05T14:26:11.813Z,0.30
2023-02-05T14:28:49.194Z,0.30
2023-02-05T14:31:37.814Z,0.30
2023-02-05T14:34:30.042Z,0.30
2023-02-05T14:37:00.021Z,0.30
2023-02-05T14:39:33.375Z,0.30
2023-02-05T14:42:05.489Z,0.30
2023-02-05T14:44:36.188Z,0.30
2023-02-05T14:47:07.572Z,0.30
2023-02-05T14:49:40.810Z,0.30
2023-02-05T14:52:20.344Z,0.30
2023-02-05T14:54:53.022Z,0.30
2023-02-05T14:57:23.891Z,0.30
2023-02-05T14:59:55.806Z,0.30
2023-02-05T15:02:44.583Z,0.20
2023-02-05T15:05:17.317Z,0.30
2023-02-05T15:07:47.981Z,0.30
2023-02-05T15:10:22.326Z,0.30
2023-02-05T15:13:02.974Z,0.30
2023-02-05T15:15:35.654Z,0.30
2023-02-05T15:18:07.429Z,0.30
2023-02-05T15:20:38.163Z,0.30
2023-02-05T15:23:14.462Z,0.30
2023-02-05T15:25:47.547Z,0.30
2023-02-05T15:28:22.254Z,0.30
2023-02-05T15:30:59.140Z,0.30
2023-02-05T15:33:46.313Z,0.30
2023-02-05T15:36:21.706Z,0.30
2023-02-05T15:38:53.988Z,0.23
2023-02-05T15:41:25.654Z,0.30
2023-02-05T15:44:02.363Z,0.20
2023-02-05T15:46:34.077Z,0.20
2023-02-05T15:49:03.646Z,0.30
2023-02-05T15:51:35.042Z,0.20
2023-02-05T15:54:05.816Z,0.30
2023-02-05T15:56:37.276Z,0.30
2023-02-05T15:59:08.062Z,0.30
2023-02-05T16:01:38.385Z,0.30
2023-02-05T16:04:18.858Z,0.30
2023-02-05T16:06:48.689Z,0.30
2023-02-05T16:09:19.242Z,0.30
2023-02-05T16:11:50.308Z,0.30
2023-02-05T16:14:20.847Z,0.30
2023-02-05T16:16:57.174Z,0.30
2023-02-05T16:19:27.825Z,0.30
2023-02-05T16:22:00.542Z,0.30
2023-02-05T16:24:32.541Z,0.30
2023-02-05T16:27:05.880Z,0.30
2023-02-05T16:29:47.746Z,0.30
2023-02-05T16:32:22.152Z,0.30
2023-02-05T16:34:51.906Z,0.30
2023-02-05T16:37:22.140Z,0.30
2023-02-05T16:39:54.732Z,0.30
2023-02-05T16:42:33.136Z,0.30
2023-02-05T16:45:08.268Z,0.30
2023-02-05T16:47:38.168Z,0.30
2023-02-05T16:50:35.487Z,0.30
2023-02-05T16:53:06.191Z,0.30
2023-02-05T16:55:41.187Z,0.30
2023-02-05T16:58:17.419Z,0.30
2023-02-05T17:00:53.183Z,0.30
2023-02-05T17:03:23.817Z,0.30
2023-02-05T17:06:00.564Z,0.30
2023-02-05T17:08:34.391Z,0.30
2023-02-05T17:11:04.921Z,0.30
2023-02-05T17:13:40.470Z,0.30
2023-02-05T17:16:27.082Z,0.30
2023-02-05T17:18:58.233Z,0.30
2023-02-05T17:21:29.836Z,0.40
2023-02-05T17:24:01.636Z,0.30
2023-02-05T17:26:32.773Z,0.30
2023-02-05T17:29:04.652Z,0.40
2023-02-05T17:31:35.135Z,0.30
2023-02-05T17:34:04.925Z,0.30
2023-02-05T17:36:34.475Z,0.30
2023-02-05T17:39:04.047Z,0.30
2023-02-05T17:41:54.705Z,0.30
2023-02-05T17:44:25.629Z,0.30
2023-02-05T17:46:55.123Z,0.40
2023-02-05T17:49:24.587Z,0.30
2023-02-05T17:51:54.287Z,0.30
2023-02-05T17:54:25.551Z,0.30
2023-02-05T17:56:56.788Z,0.30
2023-02-05T17:59:28.108Z,0.30
2023-02-05T18:01:58.435Z,0.40
2023-02-05T18:04:28.420Z,0.30
2023-02-05T18:06:58.764Z,0.30
2023-02-05T18:09:28.391Z,0.30
2023-02-05T18:11:58.059Z,0.40
2023-02-05T18:14:28.934Z,0.30
2023-02-05T18:16:58.488Z,0.30
2023-02-05T18:19:29.448Z,0.30
2023-02-05T18:21:58.901Z,0.30
2023-02-05T18:24:30.770Z,0.30
2023-02-05T18:27:00.304Z,0.30
2023-02-05T18:29:31.337Z,0.33
2023-02-05T18:32:00.893Z,0.30
2023-02-05T18:34:30.390Z,0.30
2023-02-05T18:37:04.620Z,0.30
2023-02-05T18:39:34.138Z,0.30
2023-02-05T18:42:03.614Z,0.30
2023-02-05T18:44:34.614Z,0.30
2023-02-05T18:47:04.914Z,0.30
2023-02-05T18:49:34.635Z,0.37
2023-02-05T18:52:05.536Z,0.30
2023-02-05T18:54:35.077Z,0.30
2023-02-05T18:57:05.179Z,0.30
2023-02-05T18:59:37.864Z,0.30
2023-02-05T19:02:07.950Z,0.40
2023-02-05T19:04:37.638Z,0.40
2023-02-05T19:07:07.251Z,0.30
2023-02-05T19:09:36.795Z,0.40
2023-02-05T19:12:06.564Z,0.30
2023-02-05T19:14:37.469Z,0.30
2023-02-05T19:17:07.698Z,0.30
2023-02-05T19:19:37.243Z,0.30
2023-02-05T19:22:06.726Z,0.30
2023-02-05T19:24:36.425Z,0.30
2023-02-05T19:27:06.953Z,0.30
2023-02-05T19:29:39.940Z,0.40
2023-02-05T19:32:09.582Z,0.30
2023-02-05T19:34:40.923Z,0.30
2023-02-05T19:37:12.281Z,0.30
2023-02-05T19:39:42.015Z,0.30
2023-02-05T19:42:11.514Z,0.30
2023-02-05T19:44:42.339Z,0.30
2023-02-05T19:47:12.842Z,0.40
2023-02-05T19:49:42.341Z,0.30
2023-02-05T19:52:11.829Z,0.30
2023-02-05T19:54:43.692Z,0.30
2023-02-05T19:57:13.606Z,0.30
2023-02-05T19:59:44.649Z,0.30
2023-02-05T20:02:19.327Z,0.30
2023-02-05T20:04:52.251Z,0.30
2023-02-05T20:07:21.766Z,0.30
2023-02-05T20:09:51.456Z,0.30
2023-02-05T20:12:20.944Z,0.30
2023-02-05T20:14:52.118Z,0.30
2023-02-05T20:17:21.676Z,0.30
2023-02-05T20:19:55.173Z,0.30
2023-02-05T20:22:27.073Z,0.30
2023-02-05T20:24:56.466Z,0.40
2023-02-05T20:27:25.995Z,0.30
2023-02-05T20:30:14.214Z,0.30
2023-02-05T20:32:46.310Z,0.40
2023-02-05T20:35:15.694Z,0.30
2023-02-05T20:37:45.092Z,0.30
2023-02-05T20:40:15.897Z,0.30
2023-02-05T20:42:45.669Z,0.30
2023-02-05T20:45:16.714Z,0.30
2023-02-05T20:47:46.410Z,0.40
2023-02-05T20:50:15.832Z,0.40
2023-02-05T20:52:45.665Z,0.30
2023-02-05T20:55:15.154Z,0.30
2023-02-05T20:57:45.674Z,0.40
2023-02-05T21:00:17.036Z,0.37
2023-02-05T21:02:46.509Z,0.40
2023-02-05T21:05:15.952Z,0.40
2023-02-05T21:07:45.394Z,0.30
2023-02-05T21:10:15.016Z,0.30
2023-02-05T21:12:44.563Z,0.30
2023-02-05T21:15:14.069Z,0.30
2023-02-05T21:17:45.080Z,0.30
2023-02-05T21:20:14.815Z,0.30
2023-02-05T21:22:44.382Z,0.30
2023-02-05T21:25:14.004Z,0.30
2023-02-05T21:27:43.570Z,0.30
2023-02-05T21:30:14.153Z,0.40
2023-02-05T21:32:45.147Z,0.33
2023-02-05T21:35:14.694Z,0.37
2023-02-05T21:37:44.249Z,0.30
2023-02-05T21:40:14.044Z,0.40
2023-02-05T21:42:43.662Z,0.30
2023-02-05T21:45:13.207Z,0.30
2023-02-05T21:47:42.761Z,0.40
2023-02-05T21:50:13.798Z,0.30
2023-02-05T21:52:43.737Z,0.30
2023-02-05T21:55:13.413Z,0.30
2023-02-05T21:57:43.026Z,0.30
2023-02-05T22:00:13.421Z,0.40
2023-02-05T22:02:43.282Z,0.40
2023-02-05T22:05:14.678Z,0.30
2023-02-05T22:07:44.518Z,0.40
2023-02-05T22:10:14.364Z,0.43
2023-02-05T22:12:44.118Z,0.30
2023-02-05T22:15:14.272Z,0.40
2023-02-05T22:17:44.095Z,0.40
2023-02-05T22:20:15.167Z,0.40
2023-02-05T22:22:44.788Z,0.30
2023-02-05T22:25:14.448Z,0.40
2023-02-05T22:27:44.035Z,0.30
2023-02-05T22:30:14.297Z,0.40
2023-02-05T22:32:43.992Z,0.40
2023-02-05T22:35:14.933Z,0.40
2023-02-05T22:37:44.509Z,0.40
2023-02-05T22:40:14.388Z,0.40
2023-02-05T22:42:43.896Z,0.40
2023-02-05T22:45:13.630Z,0.40
2023-02-05T22:47:43.202Z,0.40
2023-02-05T22:50:12.961Z,0.40
2023-02-05T22:52:43.901Z,0.40
2023-02-05T22:55:13.523Z,0.40
2023-02-05T22:57:43.239Z,0.40
2023-02-05T23:00:13.565Z,0.40
2023-02-05T23:02:43.153Z,0.40
2023-02-05T23:05:12.699Z,0.40
2023-02-05T23:07:42.302Z,0.40
2023-02-05T23:10:13.279Z,0.40
2023-02-05T23:12:42.871Z,0.40
2023-02-05T23:15:12.523Z,0.40
2023-02-05T23:17:42.154Z,0.40
2023-02-05T23:20:12.466Z,0.40
2023-02-05T23:22:42.087Z,0.40
2023-02-05T23:25:13.205Z,0.33
2023-02-05T23:27:42.958Z,0.40
2023-02-05T23:30:13.128Z,0.40
2023-02-05T23:32:42.693Z,0.40
2023-02-05T23:35:12.315Z,0.40
2023-02-05T23:37:41.880Z,0.30
2023-02-05T23:40:13.452Z,0.40
2023-02-05T23:42:42.998Z,0.40
2023-02-05T23:45:12.477Z,0.40
2023-02-05T23:47:42.239Z,0.40
2023-02-05T23:50:11.912Z,0.40
2023-02-05T23:52:41.406Z,0.40
2023-02-05T23:55:11.018Z,0.33
2023-02-05T23:57:42.134Z,0.40
